Stations météo

réclame
Mon MeteoGroup
Puebla De D. Rodrigo, Espagne (8271): Température de l'air & dewpoint: 14.10.2018 19:00:00 - 20.10.2018 19:00:00 (CEST)Puebla De D. Rodrigo, Espagne (8271): Vitesse du vent & gusts: 14.10.2018 19:00:00 - 20.10.2018 19:00:00 (CEST)Puebla De D. Rodrigo, Espagne (8271): Direction du vent: 14.10.2018 19:00:00 - 20.10.2018 19:00:00 (CEST)Puebla De D. Rodrigo, Espagne (8271): reduced air pressure: 14.10.2018 19:00:00 - 20.10.2018 19:00:00 (CEST)Puebla De D. Rodrigo, Espagne (8271): Quantités de précipitations: 14.10.2018 19:00:00 - 20.10.2018 19:00:00 (CEST)
Date & Time tt [°C] td [°C] ff [km/h] ff [knt] fx [km/h] fx [knt] dd ppp [hPa] rr [mm]
20.10.2018 19:00:00 - - - - - - - - -
20.10.2018 18:00:00 18,8 7,6 19 10 37 20 E 1010,6 0,0
20.10.2018 17:00:00 19,5 7,8 18 10 29 15 ENE 1010,5 0,0
20.10.2018 16:00:00 19,6 7,7 14 7 27 15 E 1010,7 0,0
20.10.2018 15:00:00 20,2 7,6 18 10 29 16 E 1010,9 0,0
20.10.2018 14:00:00 20,0 8,4 18 10 32 18 ENE 1011,5 -
20.10.2018 13:00:00 18,6 7,4 19 10 32 18 E 1012,0 0,0
20.10.2018 12:00:00 18,1 8,9 16 9 28 15 ESE 1012,0 0,0
20.10.2018 11:00:00 16,4 9,0 5 3 14 7 ESE 1012,2 0,0
20.10.2018 10:00:00 13,7 7,8 1 1 10 5 NW 1012,2 0,0
20.10.2018 09:00:00 10,5 7,8 4 2 9 5 NNE 1012,4 0,0
20.10.2018 08:00:00 11,4 8,4 4 2 9 5 SE 1011,7 -
20.10.2018 07:00:00 12,2 9,4 0 0 8 4 N 1011,4 0,0
20.10.2018 06:00:00 12,1 9,4 5 3 9 5 SE 1010,9 0,0
20.10.2018 05:00:00 12,3 10,4 3 1 11 6 SSE 1010,7 0,0
20.10.2018 04:00:00 12,3 11,7 0 0 7 4 ESE 1010,7 0,0
20.10.2018 03:00:00 12,4 11,1 0 0 0 0 N 1010,8 0,0
20.10.2018 02:00:00 13,5 12,2 0 0 0 0 N 1010,4 -
20.10.2018 01:00:00 13,7 13,1 0 0 0 0 N 1010,3 0,0
20.10.2018 00:00:00 13,8 13,2 0 0 4 2 N 1010,5 0,0
19.10.2018 23:00:00 13,8 13,2 4 2 12 6 N 1010,5 0,0
19.10.2018 22:00:00 14,0 13,3 3 1 9 5 N 1009,8 0,0
19.10.2018 21:00:00 14,2 13,3 5 3 8 4 W 1009,3 0,0
19.10.2018 20:00:00 - - - - - - - - -
19.10.2018 19:00:00 14,3 13,4 0 0 5 3 N 1007,9 0,0
19.10.2018 18:00:00 14,8 13,2 0 0 7 4 N 1007,5 1,1
19.10.2018 17:00:00 15,0 10,4 4 2 13 7 E 1007,4 0,0
19.10.2018 16:00:00 15,2 11,3 2 1 16 9 E 1007,5 0,2
19.10.2018 15:00:00 16,8 7,7 8 4 19 11 E 1007,1 0,1
19.10.2018 14:00:00 16,9 9,3 10 5 20 11 E 1007,6 -
19.10.2018 13:00:00 16,3 8,8 10 5 21 11 E 1008,1 0,0
19.10.2018 12:00:00 16,9 10,3 4 2 16 8 E 1007,2 0,0
19.10.2018 11:00:00 14,5 11,7 3 2 6 3 SSE 1007,6 0,0
19.10.2018 10:00:00 12,5 11,7 2 1 9 5 NE 1007,7 0,0
19.10.2018 09:00:00 12,3 11,6 2 1 8 4 WNW 1006,9 0,0
19.10.2018 08:00:00 11,7 11,1 5 3 9 5 WSW 1006,3 -
19.10.2018 07:00:00 11,7 10,9 2 1 5 3 NW 1006,2 0,0
19.10.2018 06:00:00 12,0 11,1 0 0 4 2 N 1005,9 0,0
19.10.2018 05:00:00 12,4 11,1 5 3 10 5 SW 1005,6 0,0
19.10.2018 04:00:00 12,6 11,2 1 0 5 3 N 1005,4 0,0
19.10.2018 03:00:00 12,8 11,6 4 2 8 5 SW 1005,5 0,0
19.10.2018 02:00:00 12,7 11,1 5 3 11 6 W 1005,6 -
19.10.2018 01:00:00 12,5 9,6 5 3 12 6 W 1006,5 0,0
19.10.2018 00:00:00 13,0 7,8 9 5 19 10 SW 1006,5 0,0
18.10.2018 23:00:00 13,3 8,5 9 5 13 7 SW 1006,4 0,0
18.10.2018 22:00:00 13,6 8,4 5 3 14 7 WSW 1006,0 0,0
18.10.2018 21:00:00 13,7 8,4 9 5 20 11 SW 1005,4 0,0
18.10.2018 20:00:00 13,8 8,4 6 4 31 17 SW 1004,3 -
18.10.2018 19:00:00 14,8 8,8 17 9 37 20 SSW 1003,3 0,0
18.10.2018 18:00:00 19,6 5,6 11 6 36 19 E 1001,3 0,0
18.10.2018 17:00:00 18,6 6,7 13 7 62 33 ENE 1001,4 0,0
18.10.2018 16:00:00 17,0 7,8 17 9 55 30 E 1002,1 6,8
18.10.2018 15:00:00 20,0 5,9 23 12 41 22 ENE 1001,7 0,0
18.10.2018 14:00:00 18,6 5,1 21 11 35 19 E 1002,6 -
18.10.2018 13:00:00 18,6 9,0 3 1 12 7 ESE 1002,8 0,1
18.10.2018 12:00:00 15,5 10,9 2 1 8 4 E 1003,8 0,0
18.10.2018 11:00:00 14,4 10,8 0 0 6 3 W 1004,1 0,0
18.10.2018 10:00:00 13,3 11,0 0 0 8 4 N 1004,0 0,1
18.10.2018 09:00:00 12,7 10,9 5 3 10 5 SSE 1003,9 0,0
18.10.2018 08:00:00 12,8 10,9 3 2 8 4 NW 1003,6 -
18.10.2018 07:00:00 12,9 11,3 6 3 14 8 E 1004,2 0,1
18.10.2018 06:00:00 12,6 12,0 8 4 16 8 ESE 1004,9 0,1
18.10.2018 05:00:00 12,5 11,7 6 3 11 6 WSW 1005,7 0,0
18.10.2018 04:00:00 12,5 11,6 4 2 6 4 SSE 1006,2 0,0
18.10.2018 03:00:00 12,6 11,0 0 0 6 3 N 1006,7 0,0
18.10.2018 02:00:00 14,0 9,0 3 1 7 4 SW 1006,9 -
18.10.2018 01:00:00 13,0 10,2 0 0 0 0 N 1007,8 0,0
18.10.2018 00:00:00 13,9 8,8 0 0 0 0 N 1007,9 0,0
17.10.2018 23:00:00 14,1 8,3 0 0 4 2 N 1008,3 0,0
17.10.2018 22:00:00 15,2 7,4 6 3 9 5 WSW 1008,4 0,0
17.10.2018 21:00:00 15,5 6,2 5 3 10 5 WSW 1008,6 0,0
17.10.2018 20:00:00 16,7 3,8 5 3 11 6 SW 1008,1 -
17.10.2018 19:00:00 19,7 3,0 5 3 14 8 WSW 1007,3 0,1
17.10.2018 18:00:00 23,0 3,0 5 3 16 9 W 1007,0 0,0
17.10.2018 17:00:00 24,4 2,5 5 3 17 9 W 1007,2 0,0
17.10.2018 16:00:00 22,8 2,9 4 2 11 6 W 1008,3 0,0
17.10.2018 15:00:00 21,7 3,8 5 3 12 7 WSW 1009,2 0,0
17.10.2018 14:00:00 23,3 5,1 4 2 12 6 SSE 1009,9 -
17.10.2018 13:00:00 20,3 6,5 3 2 9 5 ESE 1011,6 0,1
17.10.2018 12:00:00 15,4 8,0 5 3 9 5 ESE 1012,9 0,0
17.10.2018 11:00:00 10,4 9,8 3 1 6 3 E 1014,3 0,1
17.10.2018 10:00:00 8,4 7,8 0 0 2 1 N 1014,8 0,1
17.10.2018 09:00:00 7,3 6,7 0 0 2 1 ENE 1014,8 0,0
17.10.2018 08:00:00 7,7 7,1 0 0 4 2 WSW 1014,6 -
17.10.2018 07:00:00 8,6 8,0 0 0 13 7 S 1014,5 0,0
17.10.2018 06:00:00 9,2 8,7 0 0 5 3 N 1014,1 0,0
17.10.2018 05:00:00 9,1 8,5 1 1 4 2 ESE 1014,1 0,0
17.10.2018 04:00:00 9,5 8,8 0 0 0 0 N 1014,0 0,0
17.10.2018 03:00:00 10,3 9,6 0 0 3 2 N 1013,9 0,0
17.10.2018 02:00:00 10,9 9,7 4 2 6 3 SW 1013,5 -
17.10.2018 01:00:00 12,3 10,5 0 0 0 0 N 1013,4 0,0
17.10.2018 00:00:00 13,4 8,9 0 0 5 3 N 1013,2 0,0
16.10.2018 23:00:00 14,0 9,0 0 0 13 7 SW 1012,9 0,0
16.10.2018 22:00:00 15,3 8,3 10 5 13 7 W 1012,2 0,0
16.10.2018 21:00:00 16,0 8,7 5 3 10 5 W 1011,5 0,0
16.10.2018 20:00:00 17,0 6,2 4 2 9 5 W 1010,8 -
16.10.2018 19:00:00 19,6 4,5 0 0 18 10 N 1009,7 0,0
16.10.2018 18:00:00 22,3 5,3 2 1 14 7 SE 1008,6 0,0
16.10.2018 17:00:00 21,0 5,0 6 3 18 10 NNE 1008,8 0,0
16.10.2018 16:00:00 21,0 5,3 8 4 19 11 ENE 1008,8 0,0
16.10.2018 15:00:00 20,2 6,5 5 3 14 7 ENE 1009,1 0,0
16.10.2018 14:00:00 18,3 8,0 4 2 15 8 NNE 1009,6 -
16.10.2018 13:00:00 16,7 9,2 2 1 9 5 ENE 1010,2 0,0
16.10.2018 12:00:00 15,3 8,9 4 2 9 5 SSE 1009,9 0,1
16.10.2018 11:00:00 14,5 9,9 4 2 - - SE 1010,0 -
16.10.2018 10:00:00 12,6 12,0 0 0 0 0 N 1009,4 0,0
16.10.2018 09:00:00 12,1 11,4 1 1 6 4 E 1008,8 0,0
16.10.2018 08:00:00 11,5 10,9 1 1 6 3 NE 1008,0 -
16.10.2018 07:00:00 11,8 11,2 0 0 5 3 N 1007,5 0,0
16.10.2018 06:00:00 11,8 11,2 0 0 6 3 N 1007,2 0,0
16.10.2018 05:00:00 11,6 11,0 5 3 10 6 E 1007,1 0,0
16.10.2018 04:00:00 11,9 11,3 5 3 10 6 SE 1006,9 0,0
16.10.2018 03:00:00 11,9 11,3 5 3 9 5 ESE 1006,9 0,1
16.10.2018 02:00:00 11,7 11,2 4 2 10 5 E 1006,4 -
16.10.2018 01:00:00 11,5 10,9 5 3 8 5 E 1007,3 0,0
16.10.2018 00:00:00 11,3 10,6 0 0 5 3 N 1007,0 0,0
15.10.2018 23:00:00 11,3 10,6 1 1 11 6 E 1006,8 0,0
15.10.2018 22:00:00 11,0 10,4 9 5 21 11 ESE 1006,3 0,0
15.10.2018 21:00:00 10,8 10,2 11 6 34 19 ESE 1006,1 0,0
15.10.2018 20:00:00 10,6 10,0 11 6 18 10 ESE 1006,4 -
15.10.2018 19:00:00 10,8 10,2 13 7 18 10 ESE 1006,6 0,0
15.10.2018 18:00:00 10,8 10,2 10 5 18 10 E 1006,6 0,0
15.10.2018 17:00:00 10,9 9,9 11 6 22 12 ESE 1006,2 0,1
15.10.2018 16:00:00 11,3 9,6 1 1 26 14 N 1006,7 0,0
15.10.2018 15:00:00 13,6 6,2 15 8 29 15 S 1005,9 0,0
15.10.2018 14:00:00 14,4 4,6 14 8 32 18 SSW 1005,7 -
15.10.2018 13:00:00 13,5 5,5 12 7 22 12 SSW 1007,4 0,0
15.10.2018 12:00:00 - - - - - - - - -
15.10.2018 11:00:00 10,4 4,8 8 4 15 8 SSW 1008,8 0,0
15.10.2018 10:00:00 9,9 6,2 3 1 11 6 ENE 1008,8 0,0
15.10.2018 09:00:00 9,1 7,3 1 0 12 7 SE 1008,6 0,0
15.10.2018 08:00:00 7,7 6,4 5 3 12 7 WSW 1008,9 -
15.10.2018 07:00:00 7,9 6,5 8 4 15 8 WSW 1008,6 0,0
15.10.2018 06:00:00 8,2 6,7 6 3 13 7 WSW 1008,6 0,0
15.10.2018 05:00:00 8,4 6,2 4 2 14 7 W 1008,4 0,0
15.10.2018 04:00:00 8,7 5,9 4 2 17 9 W 1009,0 0,0
15.10.2018 03:00:00 9,4 6,1 2 1 12 7 NW 1009,0 0,0
15.10.2018 02:00:00 10,0 5,6 3 2 20 11 W 1008,7 -
15.10.2018 01:00:00 10,7 5,3 6 3 16 9 WSW 1008,5 0,1
15.10.2018 00:00:00 12,2 5,0 6 3 16 8 WSW 1008,1 0,0
14.10.2018 23:00:00 12,3 3,6 5 3 11 6 WSW 1007,9 0,0
14.10.2018 22:00:00 13,5 1,7 4 2 13 7 W 1007,3 0,0
14.10.2018 21:00:00 14,2 1,5 4 2 21 11 W 1006,8 0,0
14.10.2018 20:00:00 14,4 0,9 5 3 28 15 W 1006,4 -
14.10.2018 19:00:00 15,3 0,6 9 5 25 13 W 1005,6 0,0

tt = Température de l'air
td = dewpoint
ff = Vitesse du vent
fx = gusts
dd = Direction du vent
ppp = reduced air pressure
rr = Quantités de précipitations

stations d'obs. à proximité